createdAt,value
2019-01-24T00:00:54.323Z,3.48
2019-01-24T00:01:54.567Z,3.49
2019-01-24T00:02:55.547Z,3.51
2019-01-24T00:03:54.704Z,3.48
2019-01-24T00:04:54.736Z,3.5
2019-01-24T00:05:54.268Z,3.51
2019-01-24T00:06:54.418Z,3.52
2019-01-24T00:07:55.183Z,3.5
2019-01-24T00:08:54.420Z,3.5
2019-01-24T00:09:54.417Z,3.49
2019-01-24T00:10:56.182Z,3.48
2019-01-24T00:11:54.691Z,3.48
2019-01-24T00:12:54.312Z,3.5
2019-01-24T00:13:54.362Z,3.5
2019-01-24T00:14:54.412Z,3.5
2019-01-24T00:15:54.353Z,3.52
2019-01-24T00:16:54.922Z,3.51
2019-01-24T00:17:54.322Z,3.49
2019-01-24T00:18:54.401Z,3.5
2019-01-24T00:19:54.491Z,3.51
2019-01-24T00:20:54.324Z,3.52
2019-01-24T00:21:56.088Z,3.53
2019-01-24T00:22:54.538Z,3.53
2019-01-24T00:23:54.947Z,3.51
2019-01-24T00:24:54.285Z,3.5
2019-01-24T00:25:54.236Z,3.52
2019-01-24T00:26:54.261Z,3.52
2019-01-24T00:27:54.254Z,3.51
2019-01-24T00:28:54.392Z,3.51
2019-01-24T00:29:54.923Z,3.5
2019-01-24T00:30:54.361Z,3.49
2019-01-24T00:31:54.257Z,3.47
2019-01-24T00:32:54.346Z,3.48
2019-01-24T00:33:54.413Z,3.49
2019-01-24T00:34:54.244Z,3.5
2019-01-24T00:35:54.474Z,3.5
2019-01-24T00:36:54.247Z,3.5
2019-01-24T00:37:54.508Z,3.49
2019-01-24T00:38:54.420Z,3.49
2019-01-24T00:39:54.570Z,3.5
2019-01-24T00:40:54.459Z,3.51
2019-01-24T00:41:54.728Z,3.48
2019-01-24T00:42:54.770Z,3.5
2019-01-24T00:43:54.681Z,3.49
2019-01-24T00:44:54.482Z,3.49
2019-01-24T00:45:54.235Z,3.49
2019-01-24T00:46:54.540Z,3.51
2019-01-24T00:47:54.537Z,3.5
2019-01-24T00:48:54.615Z,3.52
2019-01-24T00:49:55.164Z,3.52
2019-01-24T00:50:54.939Z,3.52
2019-01-24T00:51:54.381Z,3.52
2019-01-24T00:52:54.210Z,3.49
2019-01-24T00:53:54.732Z,3.48
2019-01-24T00:54:54.553Z,3.48
2019-01-24T00:55:54.258Z,3.48
2019-01-24T00:56:54.276Z,3.47
2019-01-24T00:57:54.595Z,3.5
2019-01-24T00:58:54.306Z,3.49
2019-01-24T00:59:54.231Z,3.48
2019-01-24T01:00:54.339Z,3.48
2019-01-24T01:01:54.469Z,3.46
2019-01-24T01:02:54.250Z,3.46
2019-01-24T01:03:54.510Z,3.45
2019-01-24T01:04:54.426Z,3.46
2019-01-24T01:05:54.354Z,3.45
2019-01-24T01:06:54.527Z,3.44
2019-01-24T01:07:54.438Z,3.45
2019-01-24T01:08:54.210Z,3.46
2019-01-24T01:09:54.349Z,3.43
2019-01-24T01:10:54.385Z,3.43
2019-01-24T01:11:54.220Z,3.44
2019-01-24T01:12:54.298Z,3.44
2019-01-24T01:13:54.276Z,3.43
2019-01-24T01:14:54.352Z,3.43
2019-01-24T01:15:54.294Z,3.43
2019-01-24T01:16:54.157Z,3.43
2019-01-24T01:17:54.179Z,3.43
2019-01-24T01:18:54.255Z,3.45
2019-01-24T01:19:54.212Z,3.45
2019-01-24T01:20:54.198Z,3.44
2019-01-24T01:21:54.335Z,3.43
2019-01-24T01:22:54.337Z,3.43
2019-01-24T01:23:54.161Z,3.43
2019-01-24T01:24:54.565Z,3.42
2019-01-24T01:25:54.260Z,3.42
2019-01-24T01:26:54.215Z,3.45
2019-01-24T01:27:54.158Z,3.44
2019-01-24T01:28:55.249Z,3.44
2019-01-24T01:29:54.262Z,3.44
2019-01-24T01:30:54.152Z,3.43
2019-01-24T01:31:54.156Z,3.43
2019-01-24T01:32:54.179Z,3.43
2019-01-24T01:33:54.150Z,3.42
2019-01-24T01:34:54.247Z,3.43
2019-01-24T01:35:54.153Z,3.44
2019-01-24T01:36:54.126Z,3.43
2019-01-24T01:37:54.457Z,3.39
2019-01-24T01:38:54.182Z,3.38
2019-01-24T01:39:54.261Z,3.35
2019-01-24T01:40:54.143Z,3.33
2019-01-24T01:41:54.707Z,3.34
2019-01-24T01:42:54.381Z,3.33
2019-01-24T01:43:54.141Z,3.34
2019-01-24T01:44:54.172Z,3.33
2019-01-24T01:45:54.168Z,3.34
2019-01-24T01:46:54.190Z,3.34
2019-01-24T01:47:55.861Z,3.33
2019-01-24T01:48:54.201Z,3.33
2019-01-24T01:49:54.320Z,3.33
2019-01-24T01:50:54.123Z,3.33
2019-01-24T01:51:54.503Z,3.32
2019-01-24T01:52:54.168Z,3.32
2019-01-24T01:53:54.320Z,3.33
2019-01-24T01:54:54.768Z,3.34
2019-01-24T01:55:54.991Z,3.33
2019-01-24T01:56:54.268Z,3.31
2019-01-24T01:57:55.242Z,3.32
2019-01-24T01:58:54.973Z,3.29
2019-01-24T01:59:55.334Z,3.31
2019-01-24T02:00:54.206Z,3.31
2019-01-24T02:01:54.154Z,3.31
2019-01-24T02:02:54.663Z,3.32
2019-01-24T02:03:54.327Z,3.31
2019-01-24T02:04:54.172Z,3.32
2019-01-24T02:05:54.153Z,3.3
2019-01-24T02:06:54.623Z,3.31
2019-01-24T02:07:54.355Z,3.32
2019-01-24T02:08:54.118Z,3.32
2019-01-24T02:09:54.356Z,3.32
2019-01-24T02:10:54.369Z,3.31
2019-01-24T02:11:54.390Z,3.33
2019-01-24T02:12:54.122Z,3.34
2019-01-24T02:13:54.177Z,3.38
2019-01-24T02:14:54.395Z,3.38
2019-01-24T02:15:54.367Z,3.39
2019-01-24T02:16:54.148Z,3.4
2019-01-24T02:17:54.164Z,3.38
2019-01-24T02:18:54.202Z,3.35
2019-01-24T02:19:54.100Z,3.34
2019-01-24T02:20:54.556Z,3.28
2019-01-24T02:21:54.646Z,3.29
2019-01-24T02:22:54.240Z,3.31
2019-01-24T02:23:54.098Z,3.31
2019-01-24T02:24:54.315Z,3.31
2019-01-24T02:25:54.182Z,3.32
2019-01-24T02:26:54.064Z,3.32
2019-01-24T02:27:54.375Z,3.33
2019-01-24T02:28:54.309Z,3.33
2019-01-24T02:29:54.382Z,3.32
2019-01-24T02:30:54.300Z,3.31
2019-01-24T02:31:54.508Z,3.31
2019-01-24T02:32:54.674Z,3.32
2019-01-24T02:33:54.139Z,3.29
2019-01-24T02:34:54.532Z,3.3
2019-01-24T02:35:54.088Z,3.3
2019-01-24T02:36:54.216Z,3.3
2019-01-24T02:37:54.240Z,3.3
2019-01-24T02:38:54.194Z,3.3
2019-01-24T02:39:54.308Z,3.3
2019-01-24T02:40:54.379Z,3.29
2019-01-24T02:41:54.375Z,3.31
2019-01-24T02:42:54.459Z,3.31
2019-01-24T02:43:54.383Z,3.33
2019-01-24T02:44:54.450Z,3.35
2019-01-24T02:45:54.169Z,3.37
2019-01-24T02:46:54.026Z,3.37
2019-01-24T02:47:54.634Z,3.38
2019-01-24T02:48:54.163Z,3.39
2019-01-24T02:49:54.924Z,3.4
2019-01-24T02:50:54.350Z,3.41
2019-01-24T02:51:54.353Z,3.41
2019-01-24T02:52:54.110Z,3.41
2019-01-24T02:53:54.480Z,3.4
2019-01-24T02:54:54.563Z,3.4
2019-01-24T02:55:54.903Z,3.41
2019-01-24T02:56:54.085Z,3.42
2019-01-24T02:57:53.997Z,3.43
2019-01-24T02:58:54.367Z,3.44
2019-01-24T02:59:54.319Z,3.43
2019-01-24T03:00:53.995Z,3.43
2019-01-24T03:01:54.016Z,3.44
2019-01-24T03:02:54.191Z,3.44
2019-01-24T03:03:54.399Z,3.43
2019-01-24T03:04:57.439Z,3.43
2019-01-24T03:05:54.067Z,3.43
2019-01-24T03:06:54.185Z,3.44
2019-01-24T03:07:54.063Z,3.45
2019-01-24T03:08:53.968Z,3.44
2019-01-24T03:09:55.561Z,3.43
2019-01-24T03:10:54.061Z,3.42
2019-01-24T03:11:54.091Z,3.43
2019-01-24T03:12:54.176Z,3.42
2019-01-24T03:13:54.015Z,3.42
2019-01-24T03:14:54.094Z,3.43
2019-01-24T03:15:54.145Z,3.42
2019-01-24T03:16:54.280Z,3.43
2019-01-24T03:17:54.071Z,3.46
2019-01-24T03:18:54.337Z,3.45
2019-01-24T03:19:54.279Z,3.45
2019-01-24T03:20:53.990Z,3.43
2019-01-24T03:21:54.192Z,3.43
2019-01-24T03:22:54.340Z,3.44
2019-01-24T03:23:54.008Z,3.43
2019-01-24T03:24:54.253Z,3.41
2019-01-24T03:25:54.042Z,3.4
2019-01-24T03:26:53.977Z,3.4
2019-01-24T03:27:54.041Z,3.41
2019-01-24T03:28:54.232Z,3.42
2019-01-24T03:29:54.131Z,3.42
2019-01-24T03:30:54.294Z,3.42
2019-01-24T03:31:54.034Z,3.41
2019-01-24T03:32:54.481Z,3.42
2019-01-24T03:33:54.142Z,3.42
2019-01-24T03:34:54.227Z,3.42
2019-01-24T03:35:54.231Z,3.41
2019-01-24T03:36:54.075Z,3.41
2019-01-24T03:37:53.765Z,3.41
2019-01-24T03:38:54.493Z,3.4
2019-01-24T03:39:54.150Z,3.4
2019-01-24T03:40:54.390Z,3.41
2019-01-24T03:41:54.016Z,3.41
2019-01-24T03:42:54.021Z,3.42
2019-01-24T03:43:53.993Z,3.42
2019-01-24T03:44:54.208Z,3.44
2019-01-24T03:45:53.948Z,3.42
2019-01-24T03:46:53.940Z,3.43
2019-01-24T03:47:54.105Z,3.41
2019-01-24T03:48:53.921Z,3.41
2019-01-24T03:49:54.034Z,3.4
2019-01-24T03:50:54.274Z,3.39
2019-01-24T03:51:54.479Z,3.39
2019-01-24T03:52:54.047Z,3.4
2019-01-24T03:53:54.284Z,3.41
2019-01-24T03:54:54.092Z,3.41
2019-01-24T03:55:54.114Z,3.41
2019-01-24T03:56:54.011Z,3.4
2019-01-24T03:57:54.202Z,3.41
2019-01-24T03:58:54.108Z,3.4
2019-01-24T03:59:54.338Z,3.42
2019-01-24T04:00:53.935Z,3.42
2019-01-24T04:01:54.018Z,3.41
2019-01-24T04:02:53.933Z,3.41
2019-01-24T04:03:53.938Z,3.41
2019-01-24T04:04:53.920Z,3.41
2019-01-24T04:05:54.140Z,3.41
2019-01-24T04:06:54.367Z,3.4
2019-01-24T04:07:54.802Z,3.35
2019-01-24T04:08:54.150Z,3.31
2019-01-24T04:09:54.210Z,3.32
2019-01-24T04:10:55.004Z,3.32
2019-01-24T04:11:54.222Z,3.32
2019-01-24T04:12:53.937Z,3.33
2019-01-24T04:13:54.212Z,3.31
2019-01-24T04:14:54.399Z,3.31
2019-01-24T04:15:54.106Z,3.3
2019-01-24T04:16:54.155Z,3.29
2019-01-24T04:17:55.262Z,3.29
2019-01-24T04:18:54.222Z,3.3
2019-01-24T04:19:54.222Z,3.28
2019-01-24T04:20:54.382Z,3.28
2019-01-24T04:21:54.261Z,3.28
2019-01-24T04:22:53.871Z,3.28
2019-01-24T04:23:55.664Z,3.28
2019-01-24T04:24:53.879Z,3.29
2019-01-24T04:25:53.875Z,3.29
2019-01-24T04:26:53.946Z,3.27
2019-01-24T04:27:54.030Z,3.28
2019-01-24T04:28:53.937Z,3.28
2019-01-24T04:29:54.209Z,3.29
2019-01-24T04:30:54.119Z,3.28
2019-01-24T04:31:54.121Z,3.27
2019-01-24T04:32:55.873Z,3.27
2019-01-24T04:33:54.535Z,3.24
2019-01-24T04:34:55.563Z,3.23
2019-01-24T04:35:54.144Z,3.25
2019-01-24T04:36:53.913Z,3.26
2019-01-24T04:37:53.854Z,3.25
2019-01-24T04:38:53.833Z,3.26
2019-01-24T04:39:53.899Z,3.24
2019-01-24T04:40:53.850Z,3.24
2019-01-24T04:41:53.886Z,3.23
2019-01-24T04:42:53.851Z,3.22
2019-01-24T04:43:53.866Z,3.24
2019-01-24T04:45:53.895Z,3.23
2019-01-24T04:46:53.977Z,3.24
2019-01-24T04:47:54.161Z,3.25
2019-01-24T04:48:53.883Z,3.25
2019-01-24T04:49:54.365Z,3.25
2019-01-24T04:50:53.811Z,3.25
2019-01-24T04:51:53.890Z,3.25
2019-01-24T04:52:53.847Z,3.24
2019-01-24T04:53:53.918Z,3.25
2019-01-24T04:54:54.279Z,3.25
2019-01-24T04:55:53.858Z,3.23
2019-01-24T04:56:53.905Z,3.23
2019-01-24T04:57:55.336Z,3.25
2019-01-24T04:58:53.826Z,3.24
2019-01-24T04:59:54.278Z,3.22
2019-01-24T05:00:54.143Z,3.23
2019-01-24T05:01:53.919Z,3.24
2019-01-24T05:02:54.197Z,3.24
2019-01-24T05:03:53.858Z,3.25
2019-01-24T05:04:53.828Z,3.25
2019-01-24T05:05:53.874Z,3.26
2019-01-24T05:06:53.840Z,3.26
2019-01-24T05:07:54.071Z,3.26
2019-01-24T05:08:53.874Z,3.26
2019-01-24T05:09:54.169Z,3.24
2019-01-24T05:10:53.907Z,3.25
2019-01-24T05:11:53.861Z,3.23
2019-01-24T05:12:53.943Z,3.25
2019-01-24T05:13:54.288Z,3.24
2019-01-24T05:14:54.229Z,3.24
2019-01-24T05:15:53.856Z,3.26
2019-01-24T05:16:55.401Z,3.24
2019-01-24T05:17:53.852Z,3.24
2019-01-24T05:18:54.241Z,3.25
2019-01-24T05:19:54.552Z,3.24
2019-01-24T05:20:53.875Z,3.24
2019-01-24T05:21:53.957Z,3.25
2019-01-24T05:22:54.299Z,3.25
2019-01-24T05:23:54.288Z,3.25
2019-01-24T05:24:54.049Z,3.26
2019-01-24T05:25:54.418Z,3.26
2019-01-24T05:26:54.079Z,3.26
2019-01-24T05:27:54.023Z,3.25
2019-01-24T05:28:54.314Z,3.24
2019-01-24T05:29:53.925Z,3.25
2019-01-24T05:30:54.211Z,3.25
2019-01-24T05:31:53.735Z,3.26
2019-01-24T05:32:55.698Z,3.26
2019-01-24T05:33:53.940Z,3.26
2019-01-24T05:34:54.429Z,3.26
2019-01-24T05:35:54.160Z,3.25
2019-01-24T05:36:53.904Z,3.27
2019-01-24T05:37:54.682Z,3.27
2019-01-24T05:38:53.844Z,3.25
2019-01-24T05:39:53.953Z,3.26
2019-01-24T05:40:53.925Z,3.25
2019-01-24T05:41:53.787Z,3.25
2019-01-24T05:42:53.904Z,3.24
2019-01-24T05:43:53.932Z,3.25
2019-01-24T05:44:54.652Z,3.24
2019-01-24T05:45:53.738Z,3.23
2019-01-24T05:46:53.983Z,3.24
2019-01-24T05:47:53.794Z,3.24
2019-01-24T05:48:53.933Z,3.24
2019-01-24T05:49:53.840Z,3.25
2019-01-24T05:50:53.887Z,3.24
2019-01-24T05:51:54.415Z,3.24
2019-01-24T05:52:53.874Z,3.24
2019-01-24T05:53:53.753Z,3.24
2019-01-24T05:54:54.186Z,3.25
2019-01-24T05:55:53.728Z,3.25
2019-01-24T05:56:53.836Z,3.25
2019-01-24T05:57:54.049Z,3.25
2019-01-24T05:58:53.893Z,3.25
2019-01-24T05:59:53.901Z,3.26
2019-01-24T06:00:55.439Z,3.26
2019-01-24T06:01:53.731Z,3.25
2019-01-24T06:02:53.981Z,3.25
2019-01-24T06:03:53.731Z,3.25
2019-01-24T06:04:54.084Z,3.26
2019-01-24T06:05:53.734Z,3.26
2019-01-24T06:06:53.769Z,3.26
2019-01-24T06:07:54.004Z,3.26
2019-01-24T06:08:55.641Z,3.26
2019-01-24T06:09:53.716Z,3.26
2019-01-24T06:10:53.849Z,3.26
2019-01-24T06:11:54.024Z,3.27
2019-01-24T06:12:55.513Z,3.26
2019-01-24T06:13:53.792Z,3.25
2019-01-24T06:14:53.921Z,3.25
2019-01-24T06:15:54.682Z,3.25
2019-01-24T06:16:55.371Z,3.25
2019-01-24T06:17:53.741Z,3.25
2019-01-24T06:18:55.276Z,3.25
2019-01-24T06:19:53.849Z,3.25
2019-01-24T06:20:55.053Z,3.25
2019-01-24T06:21:53.706Z,3.26
2019-01-24T06:22:53.750Z,3.26
2019-01-24T06:23:53.721Z,3.26
2019-01-24T06:24:53.892Z,3.25
2019-01-24T06:25:53.770Z,3.26
2019-01-24T06:26:53.871Z,3.24
2019-01-24T06:27:54.042Z,3.25
2019-01-24T06:28:53.666Z,3.24
2019-01-24T06:29:53.722Z,3.24
2019-01-24T06:30:56.672Z,3.25
2019-01-24T06:31:53.639Z,3.26
2019-01-24T06:32:53.723Z,3.25
2019-01-24T06:33:53.733Z,3.26
2019-01-24T06:34:53.862Z,3.25
2019-01-24T06:35:53.713Z,3.25
2019-01-24T06:36:54.468Z,3.25
2019-01-24T06:37:53.771Z,3.25
2019-01-24T06:38:53.683Z,3.26
2019-01-24T06:39:53.665Z,3.26
2019-01-24T06:40:53.728Z,3.26
2019-01-24T06:41:53.737Z,3.27
2019-01-24T06:42:54.098Z,3.27
2019-01-24T06:43:53.738Z,3.26
2019-01-24T06:44:53.703Z,3.26
2019-01-24T06:45:53.810Z,3.26
2019-01-24T06:46:53.753Z,3.26
2019-01-24T06:47:53.752Z,3.26
2019-01-24T06:48:53.779Z,3.26
2019-01-24T06:49:53.986Z,3.27
2019-01-24T06:50:53.678Z,3.27
2019-01-24T06:51:55.287Z,3.27
2019-01-24T06:52:55.400Z,3.27
2019-01-24T06:53:53.836Z,3.26
2019-01-24T06:54:54.201Z,3.27
2019-01-24T06:55:53.890Z,3.26
2019-01-24T06:56:53.915Z,3.27
2019-01-24T06:57:53.687Z,3.26
2019-01-24T06:58:53.650Z,3.26
2019-01-24T06:59:54.331Z,3.27
2019-01-24T07:00:54.634Z,3.27
2019-01-24T07:01:54.082Z,3.28
2019-01-24T07:02:54.898Z,3.27
2019-01-24T07:03:53.941Z,3.28
2019-01-24T07:04:53.843Z,3.28
2019-01-24T07:05:55.817Z,3.28
2019-01-24T07:06:53.652Z,3.29
2019-01-24T07:07:53.658Z,3.29
2019-01-24T07:08:53.744Z,3.29
2019-01-24T07:09:53.640Z,3.28
2019-01-24T07:10:53.834Z,3.28
2019-01-24T07:11:53.834Z,3.29
2019-01-24T07:12:53.687Z,3.29
2019-01-24T07:13:53.949Z,3.3
2019-01-24T07:14:53.585Z,3.3
2019-01-24T07:15:53.719Z,3.31
2019-01-24T07:16:53.731Z,3.31
2019-01-24T07:17:53.906Z,3.29
2019-01-24T07:18:54.043Z,3.29
2019-01-24T07:19:53.721Z,3.29
2019-01-24T07:20:53.679Z,3.3
2019-01-24T07:21:54.916Z,3.29
2019-01-24T07:22:53.612Z,3.3
2019-01-24T07:23:53.894Z,3.3
2019-01-24T07:24:53.557Z,3.3
2019-01-24T07:25:54.335Z,3.26
2019-01-24T07:26:53.592Z,3.27
2019-01-24T07:27:54.871Z,3.26
2019-01-24T07:28:53.574Z,3.25
2019-01-24T07:29:54.423Z,3.26
2019-01-24T07:30:55.145Z,3.27
2019-01-24T07:31:53.755Z,3.3
2019-01-24T07:32:53.859Z,3.3
2019-01-24T07:33:53.761Z,3.29
2019-01-24T07:34:53.581Z,3.29
2019-01-24T07:35:53.781Z,3.29
2019-01-24T07:36:54.320Z,3.29
2019-01-24T07:37:53.564Z,3.27
2019-01-24T07:38:53.575Z,3.28
2019-01-24T07:39:53.696Z,3.28
2019-01-24T07:40:53.621Z,3.29
2019-01-24T07:41:53.704Z,3.29
2019-01-24T07:42:53.703Z,3.29
2019-01-24T07:43:53.810Z,3.27
2019-01-24T07:44:53.821Z,3.23
2019-01-24T07:45:53.610Z,3.2
2019-01-24T07:46:54.401Z,3.23
2019-01-24T07:47:53.785Z,3.23
2019-01-24T07:48:53.694Z,3.23
2019-01-24T07:49:53.881Z,3.22
2019-01-24T07:50:53.588Z,3.22
2019-01-24T07:51:53.803Z,3.24
2019-01-24T07:52:53.976Z,3.23
2019-01-24T07:53:53.738Z,3.23
2019-01-24T07:54:53.594Z,3.22
2019-01-24T07:55:53.599Z,3.23
2019-01-24T07:56:53.797Z,3.21
2019-01-24T07:57:53.564Z,3.2
2019-01-24T07:58:55.038Z,3.2
2019-01-24T07:59:53.562Z,3.21
2019-01-24T08:00:53.783Z,3.21
2019-01-24T08:01:53.778Z,3.21
2019-01-24T08:02:53.679Z,3.21
2019-01-24T08:03:53.680Z,3.2
2019-01-24T08:04:53.558Z,3.21
2019-01-24T08:05:53.808Z,3.26
2019-01-24T08:06:53.552Z,3.29
2019-01-24T08:07:53.525Z,3.3
2019-01-24T08:08:53.569Z,3.3
2019-01-24T08:09:53.531Z,3.31
2019-01-24T08:10:53.683Z,3.32
2019-01-24T08:11:53.587Z,3.3
2019-01-24T08:12:53.514Z,3.31
2019-01-24T08:13:53.564Z,3.32
2019-01-24T08:14:53.666Z,3.33
2019-01-24T08:15:53.553Z,3.33
2019-01-24T08:16:53.558Z,3.32
2019-01-24T08:17:53.533Z,3.32
2019-01-24T08:18:53.539Z,3.33
2019-01-24T08:19:53.556Z,3.34
2019-01-24T08:20:53.524Z,3.3
2019-01-24T08:21:53.755Z,3.29
2019-01-24T08:22:53.534Z,3.29
2019-01-24T08:23:53.552Z,3.28
2019-01-24T08:24:53.524Z,3.29
2019-01-24T08:25:53.836Z,3.29
2019-01-24T08:26:53.571Z,3.26
2019-01-24T08:27:55.314Z,3.28
2019-01-24T08:28:53.573Z,3.28
2019-01-24T08:29:55.987Z,3.26
2019-01-24T08:30:54.142Z,3.24
2019-01-24T08:31:53.566Z,3.25
2019-01-24T08:32:53.778Z,3.25
2019-01-24T08:33:53.890Z,3.25
2019-01-24T08:34:53.695Z,3.26
2019-01-24T08:35:53.618Z,3.26
2019-01-24T08:36:53.452Z,3.2
2019-01-24T08:37:53.509Z,3.2
2019-01-24T08:39:00.090Z,3.17
2019-01-24T08:39:53.533Z,3.19
2019-01-24T08:40:53.788Z,3.17
2019-01-24T08:41:55.190Z,3.19
2019-01-24T08:42:53.666Z,3.18
2019-01-24T08:43:53.747Z,3.16
2019-01-24T08:44:53.446Z,3.16
2019-01-24T08:45:53.585Z,3.18
2019-01-24T08:46:53.489Z,3.16
2019-01-24T08:47:53.478Z,3.15
2019-01-24T08:48:54.292Z,3.17
2019-01-24T08:49:53.688Z,3.21
2019-01-24T08:50:53.416Z,3.19
2019-01-24T08:51:53.586Z,3.19
2019-01-24T08:52:53.668Z,3.19
2019-01-24T08:53:53.529Z,3.21
2019-01-24T08:54:53.799Z,3.17
2019-01-24T08:55:53.728Z,3.17
2019-01-24T08:56:53.644Z,3.19
2019-01-24T08:57:54.092Z,3.19
2019-01-24T08:58:55.317Z,3.22
2019-01-24T08:59:53.546Z,3.22
2019-01-24T09:00:53.458Z,3.2
2019-01-24T09:01:53.567Z,3.21
2019-01-24T09:02:53.574Z,3.21
2019-01-24T09:03:53.843Z,3.21
2019-01-24T09:04:53.588Z,3.22
2019-01-24T09:05:53.978Z,3.23
2019-01-24T09:06:53.755Z,3.23
2019-01-24T09:07:53.560Z,3.23
2019-01-24T09:08:53.470Z,3.23
2019-01-24T09:09:53.812Z,3.24
2019-01-24T09:10:53.581Z,3.25
2019-01-24T09:11:53.689Z,3.25
2019-01-24T09:12:53.579Z,3.22
2019-01-24T09:13:54.045Z,3.19
2019-01-24T09:14:53.777Z,3.21
2019-01-24T09:15:53.752Z,3.21
2019-01-24T09:16:53.485Z,3.24
2019-01-24T09:17:53.567Z,3.23
2019-01-24T09:18:53.390Z,3.24
2019-01-24T09:19:54.360Z,3.24
2019-01-24T09:20:53.674Z,3.24
2019-01-24T09:21:53.592Z,3.25
2019-01-24T09:22:55.842Z,3.23
2019-01-24T09:23:53.516Z,3.25
2019-01-24T09:24:53.400Z,3.29
2019-01-24T09:25:53.641Z,3.27
2019-01-24T09:26:53.697Z,3.27
2019-01-24T09:27:53.371Z,3.25
2019-01-24T09:28:55.221Z,3.25
2019-01-24T09:29:53.447Z,3.26
2019-01-24T09:30:54.984Z,3.28
2019-01-24T09:31:53.492Z,3.28
2019-01-24T09:32:53.474Z,3.3
2019-01-24T09:33:53.489Z,3.3
2019-01-24T09:34:53.522Z,3.31
2019-01-24T09:35:53.401Z,3.31
2019-01-24T09:36:53.544Z,3.26
2019-01-24T09:37:53.453Z,3.27
2019-01-24T09:38:55.193Z,3.28
2019-01-24T09:39:55.194Z,3.28
2019-01-24T09:40:53.812Z,3.29
2019-01-24T09:41:53.674Z,3.27
2019-01-24T09:42:53.585Z,3.3
2019-01-24T09:43:53.541Z,3.29
2019-01-24T09:44:53.449Z,3.31
2019-01-24T09:45:53.634Z,3.3
2019-01-24T09:46:53.477Z,3.31
2019-01-24T09:47:53.583Z,3.29
2019-01-24T09:48:53.443Z,3.3
2019-01-24T09:49:53.443Z,3.3
2019-01-24T09:50:53.339Z,3.31
2019-01-24T09:51:53.477Z,3.31
2019-01-24T09:52:53.551Z,3.31
2019-01-24T09:53:53.307Z,3.33
2019-01-24T09:54:53.411Z,3.34
2019-01-24T09:55:53.320Z,3.35
2019-01-24T09:56:53.348Z,3.35
2019-01-24T09:57:53.406Z,3.36
2019-01-24T09:58:53.464Z,3.36
2019-01-24T09:59:54.246Z,3.33
2019-01-24T10:00:53.297Z,3.33
2019-01-24T10:01:53.313Z,3.34
2019-01-24T10:02:53.517Z,3.35
2019-01-24T10:03:53.570Z,3.34
2019-01-24T10:04:53.361Z,3.35
2019-01-24T10:05:53.315Z,3.34
2019-01-24T10:06:53.936Z,3.33
2019-01-24T10:07:55.065Z,3.32
2019-01-24T10:08:54.506Z,3.32
2019-01-24T10:09:53.398Z,3.32
2019-01-24T10:10:53.486Z,3.32
2019-01-24T10:11:54.867Z,3.34
2019-01-24T10:13:00.240Z,3.32
2019-01-24T10:13:53.470Z,3.32
2019-01-24T10:14:53.575Z,3.28
2019-01-24T10:15:53.559Z,3.3
2019-01-24T10:16:53.455Z,3.33
2019-01-24T10:17:53.777Z,3.33
2019-01-24T10:18:53.275Z,3.33
2019-01-24T10:19:53.528Z,3.33
2019-01-24T10:20:53.393Z,3.32
2019-01-24T10:21:53.840Z,3.29
2019-01-24T10:22:53.863Z,3.3
2019-01-24T10:23:53.444Z,3.31
2019-01-24T10:26:53.868Z,3.34
2019-01-24T10:27:54.740Z,3.34
2019-01-24T10:28:54.398Z,3.31
2019-01-24T10:29:53.627Z,3.29
2019-01-24T10:30:56.617Z,3.28
2019-01-24T10:32:54.510Z,3.26
2019-01-24T10:33:54.324Z,3.28
2019-01-24T10:34:53.348Z,3.27
2019-01-24T10:35:53.303Z,3.27
2019-01-24T10:36:55.208Z,3.3
2019-01-24T10:37:54.617Z,3.29
2019-01-24T10:38:53.492Z,3.27
2019-01-24T10:39:55.393Z,3.27
2019-01-24T10:40:53.577Z,3.28
2019-01-24T10:41:53.572Z,3.31
2019-01-24T10:42:53.470Z,3.32
2019-01-24T10:44:01.655Z,3.31
2019-01-24T10:44:53.406Z,3.28
2019-01-24T10:45:53.522Z,3.27
2019-01-24T10:46:53.733Z,3.27
2019-01-24T10:47:56.310Z,3.26
2019-01-24T10:49:00.662Z,3.25
2019-01-24T10:49:55.112Z,3.26
2019-01-24T10:51:53.452Z,3.25
2019-01-24T10:52:53.781Z,3.26
2019-01-24T10:53:54.786Z,3.29
2019-01-24T10:54:53.568Z,3.25
2019-01-24T10:55:55.026Z,3.25
2019-01-24T10:56:56.160Z,3.23
2019-01-24T10:57:54.198Z,3.25
2019-01-24T10:58:53.291Z,3.27
2019-01-24T10:59:53.485Z,3.25
2019-01-24T11:00:53.435Z,3.25
2019-01-24T11:01:53.307Z,3.27
2019-01-24T11:02:53.348Z,3.27
2019-01-24T11:03:53.288Z,3.27
2019-01-24T11:04:53.456Z,3.25
2019-01-24T11:05:53.372Z,3.26
2019-01-24T11:06:54.297Z,3.28
2019-01-24T11:07:53.354Z,3.29
2019-01-24T11:08:53.476Z,3.29
2019-01-24T11:09:53.498Z,3.29
2019-01-24T11:10:53.324Z,3.31
2019-01-24T11:11:53.819Z,3.3
2019-01-24T11:12:53.265Z,3.3
2019-01-24T11:13:53.291Z,3.32
2019-01-24T11:14:53.569Z,3.33
2019-01-24T11:15:53.362Z,3.33
2019-01-24T11:16:53.568Z,3.33
2019-01-24T11:17:55.068Z,3.32
2019-01-24T11:18:53.449Z,3.34
2019-01-24T11:19:53.251Z,3.34
2019-01-24T11:20:53.415Z,3.31
2019-01-24T11:21:53.340Z,3.31
2019-01-24T11:22:53.352Z,3.32
2019-01-24T11:23:53.487Z,3.29
2019-01-24T11:25:53.477Z,3.31
2019-01-24T11:26:53.332Z,3.33
2019-01-24T11:27:53.248Z,3.3
2019-01-24T11:28:53.247Z,3.32
2019-01-24T11:29:53.201Z,3.33
2019-01-24T11:30:53.433Z,3.3
2019-01-24T11:31:53.181Z,3.32
2019-01-24T11:32:53.206Z,3.33
2019-01-24T11:33:53.302Z,3.33
2019-01-24T11:35:53.237Z,3.38
2019-01-24T11:36:57.634Z,3.36
2019-01-24T11:37:54.290Z,3.35
2019-01-24T11:38:56.445Z,3.33
2019-01-24T11:39:53.331Z,3.34
2019-01-24T11:40:53.379Z,3.35
2019-01-24T11:41:53.205Z,3.34
2019-01-24T11:42:53.380Z,3.34
2019-01-24T11:43:53.199Z,3.36
2019-01-24T11:44:53.197Z,3.36
2019-01-24T11:45:53.602Z,3.35
2019-01-24T11:46:53.204Z,3.35
2019-01-24T11:47:53.468Z,3.33
2019-01-24T11:48:53.566Z,3.34
2019-01-24T11:49:53.181Z,3.35
2019-01-24T11:50:53.242Z,3.34
2019-01-24T11:51:53.623Z,3.35
2019-01-24T11:52:53.254Z,3.36
2019-01-24T11:53:53.545Z,3.35
2019-01-24T11:54:53.223Z,3.35
2019-01-24T11:55:53.147Z,3.32
2019-01-24T11:56:53.508Z,3.36
2019-01-24T11:57:53.291Z,3.34
2019-01-24T11:58:53.334Z,3.32
2019-01-24T11:59:53.169Z,3.33
2019-01-24T12:00:53.341Z,3.35
2019-01-24T12:01:53.257Z,3.35
2019-01-24T12:02:53.354Z,3.37
2019-01-24T12:03:53.166Z,3.38
2019-01-24T12:04:53.251Z,3.38
2019-01-24T12:05:53.402Z,3.37
2019-01-24T12:06:53.296Z,3.38
2019-01-24T12:07:53.314Z,3.38
2019-01-24T12:08:53.097Z,3.4
2019-01-24T12:09:53.215Z,3.4
2019-01-24T12:10:53.400Z,3.39
2019-01-24T12:11:53.969Z,3.39
2019-01-24T12:12:53.310Z,3.38
2019-01-24T12:13:53.234Z,3.37
2019-01-24T12:14:53.430Z,3.34
2019-01-24T12:15:53.228Z,3.36
2019-01-24T12:16:53.083Z,3.37
2019-01-24T12:17:53.103Z,3.37
2019-01-24T12:18:53.275Z,3.36
2019-01-24T12:19:54.933Z,3.36
2019-01-24T12:20:53.179Z,3.33
2019-01-24T12:21:53.644Z,3.35
2019-01-24T12:22:53.429Z,3.33
2019-01-24T12:23:53.693Z,3.35
2019-01-24T12:24:53.088Z,3.33
2019-01-24T12:25:53.299Z,3.3
2019-01-24T12:26:53.446Z,3.33
2019-01-24T12:27:54.032Z,3.33
2019-01-24T12:28:53.137Z,3.33
2019-01-24T12:29:53.209Z,3.35
2019-01-24T12:30:53.216Z,3.32
2019-01-24T12:31:52.851Z,3.33
2019-01-24T12:32:53.553Z,3.34
2019-01-24T12:33:53.639Z,3.33
2019-01-24T12:34:53.105Z,3.3
2019-01-24T12:35:53.353Z,3.31
2019-01-24T12:36:56.860Z,3.29
2019-01-24T12:37:53.119Z,3.3
2019-01-24T12:38:53.815Z,3.32
2019-01-24T12:39:53.432Z,3.34
2019-01-24T12:40:53.377Z,3.31
2019-01-24T12:41:53.069Z,3.32
2019-01-24T12:42:53.512Z,3.33
2019-01-24T12:43:53.048Z,3.29
2019-01-24T12:44:53.120Z,3.29
2019-01-24T12:45:53.732Z,3.3
2019-01-24T12:46:53.330Z,3.32
2019-01-24T12:47:53.373Z,3.3
2019-01-24T12:48:53.455Z,3.29
2019-01-24T12:49:53.111Z,3.31
2019-01-24T12:50:53.466Z,3.33
2019-01-24T12:51:53.278Z,3.31
2019-01-24T12:52:53.115Z,3.33
2019-01-24T12:53:53.060Z,3.34
2019-01-24T12:54:52.999Z,3.32
2019-01-24T12:55:53.101Z,3.3
2019-01-24T12:56:53.060Z,3.3
2019-01-24T12:57:53.312Z,3.32
2019-01-24T12:59:07.958Z,3.33
2019-01-24T12:59:54.250Z,3.3
2019-01-24T13:00:53.333Z,3.3
2019-01-24T13:01:53.232Z,3.3
2019-01-24T13:02:54.882Z,3.31
2019-01-24T13:03:53.466Z,3.32
2019-01-24T13:04:53.288Z,3.32
2019-01-24T13:05:53.162Z,3.33
2019-01-24T13:06:53.035Z,3.34
2019-01-24T13:07:53.036Z,3.3
2019-01-24T13:08:53.077Z,3.3
2019-01-24T13:09:53.080Z,3.33
2019-01-24T13:10:54.825Z,3.32
2019-01-24T13:11:53.950Z,3.32
2019-01-24T13:12:53.425Z,3.3
2019-01-24T13:13:53.096Z,3.29
2019-01-24T13:14:53.317Z,3.31
2019-01-24T13:15:52.965Z,3.28
2019-01-24T13:16:53.225Z,3.29
2019-01-24T13:17:53.062Z,3.32
2019-01-24T13:18:52.965Z,3.28
2019-01-24T13:19:53.189Z,3.29
2019-01-24T13:20:53.056Z,3.28
2019-01-24T13:21:53.075Z,3.28
2019-01-24T13:22:52.987Z,3.26
2019-01-24T13:23:53.106Z,3.26
2019-01-24T13:24:53.419Z,3.26
2019-01-24T13:25:52.998Z,3.28
2019-01-24T13:26:53.150Z,3.29
2019-01-24T13:27:53.060Z,3.28
2019-01-24T13:28:53.158Z,3.28